createdAt,value
2023-06-01T00:00:26.008Z,4.18
2023-06-01T00:02:53.091Z,5.35
2023-06-01T00:05:20.398Z,5.72
2023-06-01T00:07:48.285Z,4.30
2023-06-01T00:10:15.723Z,5.03
2023-06-01T00:12:44.313Z,6.10
2023-06-01T00:15:11.547Z,7.22
2023-06-01T00:17:39.174Z,7.28
2023-06-01T00:20:10.030Z,4.80
2023-06-01T00:22:40.022Z,5.15
2023-06-01T00:25:08.769Z,8.35
2023-06-01T00:27:36.216Z,5.07
2023-06-01T00:30:03.895Z,5.78
2023-06-01T00:32:35.270Z,4.55
2023-06-01T00:35:02.703Z,4.50
2023-06-01T00:37:30.483Z,3.50
2023-06-01T00:39:57.504Z,2.80
2023-06-01T00:42:24.456Z,7.40
2023-06-01T00:44:51.573Z,4.22
2023-06-01T00:47:25.141Z,3.25
2023-06-01T00:49:53.852Z,4.25
2023-06-01T00:52:23.605Z,4.05
2023-06-01T00:54:50.896Z,4.10
2023-06-01T00:57:17.889Z,9.75
2023-06-01T00:59:44.879Z,3.10
2023-06-01T01:02:16.592Z,3.50
2023-06-01T01:04:44.683Z,3.47
2023-06-01T01:07:21.741Z,3.78
2023-06-01T01:09:57.213Z,3.45
2023-06-01T01:13:10.873Z,5.03
2023-06-01T01:15:49.426Z,3.83
2023-06-01T01:18:20.578Z,5.03
2023-06-01T01:20:52.868Z,4.72
2023-06-01T01:24:05.052Z,6.22
2023-06-01T01:27:10.190Z,5.78
2023-06-01T01:29:37.430Z,4.60
2023-06-01T01:32:07.566Z,5.03
2023-06-01T01:34:34.542Z,5.32
2023-06-01T01:37:02.127Z,10.38
2023-06-01T01:39:29.257Z,4.63
2023-06-01T01:41:56.461Z,5.05
2023-06-01T01:44:23.558Z,4.88
2023-06-01T01:46:54.572Z,5.90
2023-06-01T01:49:33.622Z,8.68
2023-06-01T01:52:11.744Z,7.38
2023-06-01T01:54:43.709Z,4.93
2023-06-01T01:57:10.767Z,6.30
2023-06-01T01:59:38.034Z,5.85
2023-06-01T02:02:05.179Z,5.88
2023-06-01T02:04:32.644Z,6.68
2023-06-01T02:06:59.698Z,5.90
2023-06-01T02:09:26.795Z,5.47
2023-06-01T02:11:54.228Z,5.68
2023-06-01T02:14:21.344Z,4.70
2023-06-01T02:16:48.531Z,4.80
2023-06-01T02:19:16.656Z,7.80
2023-06-01T02:21:44.079Z,8.85
2023-06-01T02:24:11.110Z,3.88
2023-06-01T02:26:38.843Z,8.10
2023-06-01T02:29:08.744Z,6.97
2023-06-01T02:31:36.746Z,5.10
2023-06-01T02:34:03.941Z,8.40
2023-06-01T02:36:33.054Z,6.78
2023-06-01T02:39:00.478Z,8.82
2023-06-01T02:41:27.840Z,8.68
2023-06-01T02:43:55.112Z,6.57
2023-06-01T02:46:22.214Z,6.93
2023-06-01T02:48:49.334Z,5.85
2023-06-01T02:51:16.487Z,3.95
2023-06-01T02:53:43.584Z,6.18
2023-06-01T02:56:10.653Z,7.38
2023-06-01T02:58:38.320Z,5.22
2023-06-01T03:01:05.548Z,4.18
2023-06-01T03:03:33.102Z,5.72
2023-06-01T03:06:00.227Z,6.47
2023-06-01T03:08:27.961Z,6.65
2023-06-01T03:10:55.120Z,9.27
2023-06-01T03:13:22.300Z,10.98
2023-06-01T03:15:51.387Z,8.98
2023-06-01T03:18:18.988Z,4.45
2023-06-01T03:20:48.694Z,7.82
2023-06-01T03:23:16.449Z,10.40
2023-06-01T03:25:43.575Z,11.55
2023-06-01T03:28:10.836Z,5.88
2023-06-01T03:30:37.963Z,5.47
2023-06-01T03:33:05.237Z,9.27
2023-06-01T03:35:32.506Z,10.45
2023-06-01T03:37:59.521Z,6.50
2023-06-01T03:40:26.495Z,10.35
2023-06-01T03:42:53.508Z,9.77
2023-06-01T03:45:20.548Z,7.03
2023-06-01T03:47:47.674Z,7.18
2023-06-01T03:50:14.770Z,10.30
2023-06-01T03:52:41.848Z,10.13
2023-06-01T03:55:11.744Z,5.95
2023-06-01T03:57:39.348Z,13.27
2023-06-01T04:00:19.075Z,8.52
2023-06-01T04:02:54.788Z,9.30
2023-06-01T04:05:22.573Z,7.20
2023-06-01T04:07:52.229Z,9.07
2023-06-01T04:10:20.198Z,12.00
2023-06-01T04:12:49.767Z,6.82
2023-06-01T04:15:17.527Z,3.30
2023-06-01T04:17:44.905Z,7.13
2023-06-01T04:20:21.649Z,8.05
2023-06-01T04:22:48.712Z,6.47
2023-06-01T04:25:19.921Z,8.02
2023-06-01T04:27:48.912Z,12.68
2023-06-01T04:30:17.792Z,12.13
2023-06-01T04:32:45.926Z,15.00
2023-06-01T04:35:13.113Z,13.63
2023-06-01T04:37:40.804Z,14.45
2023-06-01T04:40:09.395Z,9.15
2023-06-01T04:42:39.696Z,9.60
2023-06-01T04:45:09.023Z,12.38
2023-06-01T04:47:41.398Z,9.33
2023-06-01T04:50:09.795Z,9.90
2023-06-01T04:52:37.733Z,5.18
2023-06-01T04:55:06.024Z,12.52
2023-06-01T04:57:37.323Z,12.68
2023-06-01T05:00:12.316Z,16.75
2023-06-01T05:02:45.123Z,12.40
2023-06-01T05:05:12.641Z,13.73
2023-06-01T05:07:40.191Z,9.15
2023-06-01T05:10:08.361Z,7.38
2023-06-01T05:12:35.786Z,8.98
2023-06-01T05:15:07.153Z,14.43
2023-06-01T05:17:34.716Z,7.25
2023-06-01T05:20:01.794Z,10.63
2023-06-01T05:22:29.303Z,9.98
2023-06-01T05:24:56.583Z,12.70
2023-06-01T05:27:23.615Z,10.82
2023-06-01T05:29:50.648Z,7.22
2023-06-01T05:32:18.184Z,10.68
2023-06-01T05:34:45.653Z,9.70
2023-06-01T05:37:12.700Z,13.50
2023-06-01T05:39:39.674Z,7.75
2023-06-01T05:42:07.255Z,7.32
2023-06-01T05:44:34.541Z,9.38
2023-06-01T05:47:01.558Z,3.95
2023-06-01T05:49:32.330Z,8.63
2023-06-01T05:51:59.808Z,11.77
2023-06-01T05:54:26.940Z,7.60
2023-06-01T05:56:54.061Z,6.72
2023-06-01T05:59:21.517Z,6.50
2023-06-01T06:01:49.584Z,10.77
2023-06-01T06:04:17.537Z,9.43
2023-06-01T06:06:48.134Z,17.48
2023-06-01T06:09:16.955Z,10.65
2023-06-01T06:11:44.427Z,6.68
2023-06-01T06:14:12.801Z,8.73
2023-06-01T06:16:41.019Z,3.67
2023-06-01T06:19:08.043Z,3.58
2023-06-01T06:21:36.495Z,9.00
2023-06-01T06:24:03.712Z,10.95
2023-06-01T06:26:31.573Z,5.22
2023-06-01T06:28:59.056Z,3.90
2023-06-01T06:31:26.888Z,4.75
2023-06-01T06:33:54.536Z,4.45
2023-06-01T06:36:22.114Z,3.00
2023-06-01T06:38:49.222Z,6.32
2023-06-01T06:41:16.536Z,2.85
2023-06-01T06:43:43.516Z,6.68
2023-06-01T06:46:10.798Z,2.67
2023-06-01T06:48:37.870Z,3.55
2023-06-01T06:51:05.535Z,2.70
2023-06-01T06:53:32.757Z,2.50
2023-06-01T06:55:59.912Z,6.15
2023-06-01T06:58:27.734Z,4.18
2023-06-01T07:00:54.880Z,9.73
2023-06-01T07:03:22.406Z,3.75
2023-06-01T07:05:49.975Z,3.80
2023-06-01T07:08:17.618Z,3.15
2023-06-01T07:10:45.284Z,4.30
2023-06-01T07:13:12.356Z,3.20
2023-06-01T07:15:39.580Z,3.35
2023-06-01T07:18:07.701Z,2.47
2023-06-01T07:20:34.954Z,2.53
2023-06-01T07:23:02.071Z,4.95
2023-06-01T07:25:29.248Z,2.05
2023-06-01T07:27:57.680Z,4.53
2023-06-01T07:30:24.766Z,4.05
2023-06-01T07:32:52.194Z,3.35
2023-06-01T07:35:19.508Z,3.40
2023-06-01T07:37:47.099Z,6.13
2023-06-01T07:40:14.426Z,7.15
2023-06-01T07:42:41.493Z,10.13
2023-06-01T07:45:10.201Z,3.55
2023-06-01T07:47:37.564Z,5.05
2023-06-01T07:50:05.048Z,5.70
2023-06-01T07:52:33.307Z,5.65
2023-06-01T07:55:00.375Z,5.53
2023-06-01T07:57:27.849Z,6.53
2023-06-01T07:59:54.984Z,3.42
2023-06-01T08:02:22.312Z,5.07
2023-06-01T08:04:50.125Z,5.13
2023-06-01T08:07:17.543Z,3.67
2023-06-01T08:09:44.707Z,3.17
2023-06-01T08:12:12.925Z,5.05
2023-06-01T08:14:41.134Z,3.58
2023-06-01T08:17:08.580Z,6.32
2023-06-01T08:19:36.515Z,3.50
2023-06-01T08:22:08.489Z,4.10
2023-06-01T08:24:37.332Z,8.32
2023-06-01T08:27:20.700Z,3.97
2023-06-01T08:29:49.398Z,3.20
2023-06-01T08:32:18.213Z,3.80
2023-06-01T08:34:45.986Z,3.40
2023-06-01T08:37:14.629Z,3.70
2023-06-01T08:39:43.146Z,4.25
2023-06-01T08:42:48.530Z,4.10
2023-06-01T08:45:17.320Z,4.75
2023-06-01T08:47:45.064Z,4.13
2023-06-01T08:50:12.603Z,3.90
2023-06-01T08:52:40.055Z,4.55
2023-06-01T08:55:07.740Z,3.75
2023-06-01T08:57:36.767Z,3.88
2023-06-01T09:00:08.127Z,3.65
2023-06-01T09:02:36.296Z,4.13
2023-06-01T09:05:03.763Z,3.88
2023-06-01T09:07:34.116Z,3.90
2023-06-01T09:10:01.823Z,4.25
2023-06-01T09:12:30.584Z,7.47
2023-06-01T09:15:11.246Z,3.60
2023-06-01T09:17:39.475Z,4.13
2023-06-01T09:20:07.356Z,6.03
2023-06-01T09:22:47.836Z,3.47
2023-06-01T09:25:15.542Z,4.10
2023-06-01T09:27:50.360Z,3.40
2023-06-01T09:30:18.212Z,3.70
2023-06-01T09:32:48.916Z,5.72
2023-06-01T09:35:16.565Z,4.15
2023-06-01T09:37:56.049Z,5.88
2023-06-01T09:40:23.195Z,4.25
2023-06-01T09:42:51.365Z,3.80
2023-06-01T09:45:22.656Z,3.72
2023-06-01T09:47:50.167Z,3.80
2023-06-01T09:50:39.116Z,4.25
2023-06-01T09:53:06.538Z,6.38
2023-06-01T09:55:33.902Z,4.63
2023-06-01T09:58:22.722Z,4.03
2023-06-01T10:00:51.056Z,5.53
2023-06-01T10:03:19.979Z,3.58
2023-06-01T10:05:47.406Z,4.60
2023-06-01T10:08:16.143Z,8.05
2023-06-01T10:10:44.633Z,35.22
2023-06-01T10:13:12.352Z,9.13
2023-06-01T10:15:39.992Z,5.30
2023-06-01T10:18:07.768Z,5.93
2023-06-01T10:20:36.237Z,4.75
2023-06-01T10:23:03.885Z,4.70
2023-06-01T10:25:44.405Z,6.00
2023-06-01T10:28:12.289Z,6.13
2023-06-01T10:30:40.045Z,5.38
2023-06-01T10:33:08.770Z,5.32
2023-06-01T10:35:43.194Z,3.33
2023-06-01T10:38:17.922Z,3.92
2023-06-01T10:40:45.161Z,4.55
2023-06-01T10:43:37.084Z,4.95
2023-06-01T10:46:04.649Z,5.22
2023-06-01T10:48:55.129Z,4.30
2023-06-01T10:51:22.656Z,5.35
2023-06-01T10:53:49.784Z,4.45
2023-06-01T10:56:24.705Z,5.30
2023-06-01T11:01:44.453Z,3.58
2023-06-01T11:04:11.830Z,7.68
2023-06-01T11:06:44.159Z,5.30
2023-06-01T11:09:11.848Z,5.80
2023-06-01T11:11:56.327Z,6.03
2023-06-01T11:14:25.293Z,6.05
2023-06-01T11:16:55.964Z,6.35
2023-06-01T11:19:27.045Z,5.97
2023-06-01T11:22:02.758Z,5.82
2023-06-01T11:24:35.016Z,6.10
2023-06-01T11:27:07.553Z,5.97
2023-06-01T11:29:35.499Z,5.47
2023-06-01T11:32:07.555Z,4.22
2023-06-01T11:34:38.521Z,7.20
2023-06-01T11:37:06.532Z,5.65
2023-06-01T11:39:33.892Z,5.88
2023-06-01T11:42:10.795Z,5.45
2023-06-01T11:44:39.041Z,5.85
2023-06-01T11:47:07.369Z,4.25
2023-06-01T11:52:12.680Z,4.65
2023-06-01T11:54:39.750Z,7.80
2023-06-01T11:57:07.261Z,7.00
2023-06-01T11:59:48.020Z,5.00
2023-06-01T12:02:25.957Z,6.03
2023-06-01T12:05:00.434Z,5.65
2023-06-01T12:07:28.279Z,5.05
2023-06-01T12:09:55.810Z,3.40
2023-06-01T12:12:26.029Z,6.78
2023-06-01T12:17:20.713Z,4.72
2023-06-01T12:19:48.881Z,5.70
2023-06-01T12:22:16.960Z,4.97
2023-06-01T12:24:45.741Z,3.72
2023-06-01T12:27:17.332Z,5.57
2023-06-01T12:29:45.676Z,5.57
2023-06-01T12:32:13.505Z,5.22
2023-06-01T12:34:40.807Z,10.68
2023-06-01T12:37:20.745Z,6.15
2023-06-01T12:39:55.349Z,3.67
2023-06-01T12:42:38.890Z,5.38
2023-06-01T12:45:07.194Z,6.32
2023-06-01T12:47:41.465Z,5.72
2023-06-01T12:50:10.339Z,4.65
2023-06-01T12:52:37.682Z,5.95
2023-06-01T12:55:05.806Z,9.13
2023-06-01T12:57:33.426Z,12.68
2023-06-01T13:00:00.930Z,22.38
2023-06-01T13:02:28.450Z,22.13
2023-06-01T13:04:56.240Z,18.88
2023-06-01T13:07:24.557Z,14.77
2023-06-01T13:09:52.457Z,7.25
2023-06-01T13:12:19.617Z,7.65
2023-06-01T13:14:46.768Z,24.77
2023-06-01T13:17:13.925Z,16.02
2023-06-01T13:19:42.059Z,24.80
2023-06-01T13:27:08.692Z,12.50
2023-06-01T13:29:36.656Z,17.38
2023-06-01T13:32:03.978Z,14.50
2023-06-01T13:34:31.320Z,21.75
2023-06-01T13:36:58.824Z,21.13
2023-06-01T13:39:26.145Z,17.60
2023-06-01T13:41:53.257Z,23.92
2023-06-01T13:44:20.549Z,21.92
2023-06-01T13:46:48.305Z,14.05
2023-06-01T13:49:15.383Z,23.88
2023-06-01T13:51:42.393Z,13.15
2023-06-01T13:54:09.336Z,15.77
2023-06-01T13:56:36.956Z,10.85
2023-06-01T13:59:04.012Z,9.93
2023-06-01T14:01:31.772Z,9.15
2023-06-01T14:03:59.069Z,7.30
2023-06-01T14:06:26.424Z,20.88
2023-06-01T14:08:53.694Z,17.20
2023-06-01T14:11:21.689Z,18.27
2023-06-01T14:13:48.889Z,11.55
2023-06-01T14:16:15.991Z,14.73
2023-06-01T14:18:43.170Z,12.75
2023-06-01T14:21:10.825Z,11.13
2023-06-01T14:23:38.228Z,21.73
2023-06-01T14:26:05.904Z,28.17
2023-06-01T14:28:33.535Z,19.30
2023-06-01T14:31:01.090Z,25.75
2023-06-01T14:33:28.761Z,25.50
2023-06-01T14:35:56.358Z,20.08
2023-06-01T14:38:23.517Z,20.00
2023-06-01T14:40:50.680Z,8.80
2023-06-01T14:43:18.119Z,22.95
2023-06-01T14:45:45.174Z,11.70
2023-06-01T14:48:12.289Z,20.67
2023-06-01T14:50:39.513Z,18.90
2023-06-01T14:53:07.866Z,22.45
2023-06-01T14:55:34.997Z,19.73
2023-06-01T14:58:03.826Z,15.20
2023-06-01T15:00:32.036Z,13.90
2023-06-01T15:02:59.268Z,6.65
2023-06-01T15:05:26.299Z,19.55
2023-06-01T15:07:53.810Z,9.80
2023-06-01T15:10:20.808Z,23.65
2023-06-01T15:12:48.941Z,17.92
2023-06-01T15:15:15.964Z,11.75
2023-06-01T15:17:43.661Z,20.13
2023-06-01T15:20:11.362Z,26.90
2023-06-01T15:22:38.462Z,27.42
2023-06-01T15:25:06.543Z,26.42
2023-06-01T15:27:33.760Z,9.40
2023-06-01T15:30:01.041Z,17.10
2023-06-01T15:32:28.001Z,18.33
2023-06-01T15:34:55.194Z,6.28
2023-06-01T15:37:22.470Z,13.05
2023-06-01T15:39:49.779Z,10.88
2023-06-01T15:42:16.987Z,16.25
2023-06-01T15:44:44.469Z,7.78
2023-06-01T15:47:11.909Z,14.73
2023-06-01T15:49:42.285Z,8.93
2023-06-01T15:52:09.577Z,27.88
2023-06-01T15:54:36.880Z,26.17
2023-06-01T15:57:06.978Z,22.85
2023-06-01T15:59:34.711Z,9.63
2023-06-01T16:02:02.177Z,16.55
2023-06-01T16:04:29.588Z,23.50
2023-06-01T16:06:57.593Z,9.50
2023-06-01T16:09:25.564Z,11.85
2023-06-01T16:11:52.637Z,13.43
2023-06-01T16:14:20.617Z,17.17
2023-06-01T16:16:48.350Z,5.22
2023-06-01T16:19:15.750Z,22.95
2023-06-01T16:21:42.894Z,23.05
2023-06-01T16:24:09.929Z,17.05
2023-06-01T16:26:37.714Z,17.42
2023-06-01T16:29:05.013Z,8.50
2023-06-01T16:31:32.037Z,13.60
2023-06-01T16:33:59.040Z,9.25
2023-06-01T16:36:26.672Z,15.23
2023-06-01T16:38:54.162Z,8.10
2023-06-01T16:41:22.538Z,13.43
2023-06-01T16:43:49.560Z,5.22
2023-06-01T16:46:16.671Z,20.83
2023-06-01T16:48:43.724Z,26.00
2023-06-01T16:51:11.223Z,18.08
2023-06-01T16:53:38.326Z,17.02
2023-06-01T16:56:05.702Z,11.65
2023-06-01T16:58:33.146Z,17.77
2023-06-01T17:01:00.238Z,22.25
2023-06-01T17:03:28.537Z,19.40
2023-06-01T17:05:57.570Z,10.90
2023-06-01T17:08:24.625Z,8.88
2023-06-01T17:10:51.666Z,6.40
2023-06-01T17:13:19.498Z,17.50
2023-06-01T17:15:46.740Z,5.40
2023-06-01T17:18:14.271Z,16.88
2023-06-01T17:20:41.695Z,13.77
2023-06-01T17:23:08.926Z,14.95
2023-06-01T17:25:36.257Z,5.82
2023-06-01T17:28:03.865Z,12.88
2023-06-01T17:30:31.558Z,8.48
2023-06-01T17:32:59.646Z,14.70
2023-06-01T17:35:26.711Z,5.78
2023-06-01T17:37:53.653Z,15.88
2023-06-01T17:40:21.912Z,27.10
2023-06-01T17:42:49.005Z,12.82
2023-06-01T17:45:16.129Z,12.80
2023-06-01T17:47:43.423Z,8.23
2023-06-01T17:50:10.641Z,11.95
2023-06-01T17:52:38.619Z,9.43
2023-06-01T17:55:06.040Z,9.85
2023-06-01T17:57:33.123Z,6.43
2023-06-01T18:00:00.470Z,8.98
2023-06-01T18:02:28.328Z,6.55
2023-06-01T18:04:56.628Z,10.52
2023-06-01T18:07:26.984Z,14.77
2023-06-01T18:09:54.423Z,10.90
2023-06-01T18:12:21.572Z,21.67
2023-06-01T18:14:48.588Z,7.03
2023-06-01T18:17:15.758Z,12.45
2023-06-01T18:19:42.750Z,17.88
2023-06-01T18:22:10.375Z,22.00
2023-06-01T18:24:37.727Z,11.45
2023-06-01T18:27:04.998Z,7.13
2023-06-01T18:29:32.521Z,8.43
2023-06-01T18:31:59.781Z,11.73
2023-06-01T18:34:26.787Z,15.60
2023-06-01T18:36:54.147Z,19.98
2023-06-01T18:39:21.124Z,18.42
2023-06-01T18:41:48.153Z,9.35
2023-06-01T18:44:15.391Z,8.25
2023-06-01T18:46:42.844Z,8.57
2023-06-01T18:49:10.032Z,10.30
2023-06-01T18:51:38.537Z,8.85
2023-06-01T18:54:08.862Z,7.28
2023-06-01T18:56:36.422Z,7.05
2023-06-01T18:59:03.845Z,7.55
2023-06-01T19:01:30.974Z,9.57
2023-06-01T19:03:58.108Z,20.65
2023-06-01T19:06:25.159Z,7.80
2023-06-01T19:08:53.005Z,7.55
2023-06-01T19:11:20.333Z,8.02
2023-06-01T19:13:48.160Z,7.15
2023-06-01T19:16:29.230Z,8.32
2023-06-01T19:18:57.757Z,13.93
2023-06-01T19:21:25.733Z,22.58
2023-06-01T19:24:00.749Z,14.77
2023-06-01T19:26:31.747Z,8.85
2023-06-01T19:29:02.965Z,7.95
2023-06-01T19:31:34.949Z,11.43
2023-06-01T19:34:03.903Z,8.75
2023-06-01T19:36:43.588Z,8.65
2023-06-01T19:39:18.519Z,12.10
2023-06-01T19:41:45.818Z,9.82
2023-06-01T19:44:16.897Z,10.10
2023-06-01T19:46:44.155Z,10.60
2023-06-01T19:49:15.603Z,10.98
2023-06-01T19:51:43.887Z,15.68
2023-06-01T19:54:12.762Z,16.40
2023-06-01T19:56:43.725Z,18.88
2023-06-01T19:59:17.982Z,15.85
2023-06-01T20:01:45.332Z,13.63
2023-06-01T20:04:12.326Z,12.55
2023-06-01T20:06:41.132Z,15.80
2023-06-01T20:09:10.212Z,10.35
2023-06-01T20:11:38.410Z,12.30
2023-06-01T20:14:11.830Z,10.70
2023-06-01T20:16:39.246Z,11.25
2023-06-01T20:19:08.199Z,13.13
2023-06-01T20:21:35.409Z,11.63
2023-06-01T20:24:02.339Z,9.30
2023-06-01T20:26:30.271Z,8.93
2023-06-01T20:28:57.337Z,14.00
2023-06-01T20:31:25.528Z,11.90
2023-06-01T20:33:55.155Z,12.65
2023-06-01T20:36:28.398Z,14.07
2023-06-01T20:38:56.472Z,15.10
2023-06-01T20:41:24.949Z,9.77
2023-06-01T20:43:52.846Z,10.75
2023-06-01T20:46:25.352Z,14.45
2023-06-01T20:48:55.507Z,9.55
2023-06-01T20:51:23.688Z,10.73
2023-06-01T20:53:59.334Z,11.45
2023-06-01T20:56:46.858Z,10.05
2023-06-01T20:59:23.441Z,20.08
2023-06-01T21:01:51.974Z,10.93
2023-06-01T21:04:25.830Z,9.18
2023-06-01T21:06:53.784Z,8.20
2023-06-01T21:09:22.957Z,9.00
2023-06-01T21:11:51.209Z,7.03
2023-06-01T21:14:18.642Z,6.50
2023-06-01T21:16:46.319Z,7.57
2023-06-01T21:19:19.591Z,6.90
2023-06-01T21:21:46.817Z,6.28
2023-06-01T21:24:14.072Z,6.13
2023-06-01T21:26:41.603Z,6.82
2023-06-01T21:29:12.278Z,6.72
2023-06-01T21:31:43.138Z,5.53
2023-06-01T21:34:10.261Z,5.53
2023-06-01T21:36:38.163Z,6.97
2023-06-01T21:39:05.253Z,5.60
2023-06-01T21:41:32.419Z,5.85
2023-06-01T21:43:59.589Z,5.82
2023-06-01T21:46:26.703Z,7.50
2023-06-01T21:48:54.018Z,7.32
2023-06-01T21:51:21.337Z,5.70
2023-06-01T21:53:48.505Z,5.85
2023-06-01T21:56:15.915Z,5.22
2023-06-01T21:58:43.217Z,5.05
2023-06-01T22:01:10.189Z,7.90
2023-06-01T22:03:37.564Z,8.25
2023-06-01T22:06:05.800Z,6.60
2023-06-01T22:08:35.887Z,6.35
2023-06-01T22:11:03.216Z,6.40
2023-06-01T22:13:30.769Z,7.07
2023-06-01T22:15:57.888Z,7.70
2023-06-01T22:18:24.900Z,6.43
2023-06-01T22:20:52.002Z,7.20
2023-06-01T22:23:19.256Z,7.68
2023-06-01T22:25:46.624Z,6.68
2023-06-01T22:28:13.715Z,7.35
2023-06-01T22:30:40.900Z,8.40
2023-06-01T22:33:07.914Z,6.40
2023-06-01T22:35:35.084Z,7.30
2023-06-01T22:38:07.843Z,7.05
2023-06-01T22:40:34.856Z,7.55
2023-06-01T22:43:02.001Z,6.82
2023-06-01T22:45:29.339Z,8.18
2023-06-01T22:47:56.334Z,8.52
2023-06-01T22:50:23.546Z,9.57
2023-06-01T22:52:55.356Z,8.77
2023-06-01T22:55:22.836Z,9.48
2023-06-01T22:57:49.828Z,7.63
2023-06-01T23:00:17.360Z,7.32
2023-06-01T23:02:44.509Z,7.60
2023-06-01T23:05:13.752Z,6.90
2023-06-01T23:07:41.609Z,5.75
2023-06-01T23:10:10.576Z,6.70
2023-06-01T23:12:38.049Z,6.43
2023-06-01T23:15:06.486Z,6.38
2023-06-01T23:17:35.320Z,5.70
2023-06-01T23:20:07.040Z,6.53
2023-06-01T23:22:37.907Z,6.20
2023-06-01T23:25:06.044Z,6.35
2023-06-01T23:27:33.309Z,6.80
2023-06-01T23:30:01.338Z,6.30
2023-06-01T23:32:28.440Z,6.50
2023-06-01T23:34:55.533Z,6.43
2023-06-01T23:37:28.593Z,7.55
2023-06-01T23:39:59.361Z,6.78
2023-06-01T23:42:26.813Z,6.13
2023-06-01T23:44:53.892Z,6.93
2023-06-01T23:47:21.980Z,6.20
2023-06-01T23:49:49.285Z,5.68
2023-06-01T23:52:16.832Z,6.72
2023-06-01T23:54:44.805Z,7.47
2023-06-01T23:57:12.001Z,6.60
2023-06-01T23:59:39.731Z,5.40
